createdAt,value
2024-04-22T00:00:10.781Z,18.13
2024-04-22T00:02:37.402Z,18.85
2024-04-22T00:05:04.248Z,18.02
2024-04-22T00:07:30.983Z,18.35
2024-04-22T00:09:57.591Z,19.15
2024-04-22T00:12:24.186Z,17.77
2024-04-22T00:14:50.734Z,17.48
2024-04-22T00:17:17.320Z,18.05
2024-04-22T00:19:44.039Z,19.27
2024-04-22T00:22:10.781Z,17.85
2024-04-22T00:24:37.339Z,18.20
2024-04-22T00:27:04.623Z,18.52
2024-04-22T00:29:31.271Z,18.70
2024-04-22T00:31:57.913Z,18.70
2024-04-22T00:34:24.534Z,18.30
2024-04-22T00:36:51.538Z,18.15
2024-04-22T00:39:18.182Z,18.95
2024-04-22T00:41:44.770Z,18.60
2024-04-22T00:44:11.333Z,18.75
2024-04-22T00:46:38.082Z,18.25
2024-04-22T00:49:04.776Z,18.80
2024-04-22T00:51:32.570Z,18.48
2024-04-22T00:54:00.665Z,18.30
2024-04-22T00:56:30.017Z,18.17
2024-04-22T00:58:59.282Z,18.27
2024-04-22T01:01:27.515Z,19.38
2024-04-22T01:03:55.076Z,17.92
2024-04-22T01:06:21.648Z,18.75
2024-04-22T01:08:48.202Z,18.23
2024-04-22T01:11:15.248Z,19.65
2024-04-22T01:13:41.987Z,18.33
2024-04-22T01:16:08.995Z,18.52
2024-04-22T01:18:35.547Z,18.00
2024-04-22T01:21:02.177Z,18.13
2024-04-22T01:23:28.722Z,18.77
2024-04-22T01:25:59.034Z,18.48
2024-04-22T01:28:25.778Z,17.92
2024-04-22T01:30:52.419Z,18.13
2024-04-22T01:33:19.103Z,18.27
2024-04-22T01:35:45.750Z,17.50
2024-04-22T01:38:12.376Z,17.15
2024-04-22T01:40:39.060Z,19.15
2024-04-22T01:43:05.853Z,17.60
2024-04-22T01:45:32.452Z,17.55
2024-04-22T01:47:59.143Z,17.80
2024-04-22T01:50:25.768Z,19.35
2024-04-22T01:52:52.367Z,16.98
2024-04-22T01:55:19.098Z,17.65
2024-04-22T01:57:45.701Z,18.80
2024-04-22T02:00:13.169Z,18.25
2024-04-22T02:02:39.938Z,18.70
2024-04-22T02:05:06.881Z,16.92
2024-04-22T02:07:33.538Z,17.58
2024-04-22T02:10:08.892Z,18.55
2024-04-22T02:12:43.978Z,18.30
2024-04-22T02:15:10.565Z,15.77
2024-04-22T02:17:37.177Z,18.02
2024-04-22T02:20:04.449Z,19.20
2024-04-22T02:22:31.048Z,17.55
2024-04-22T02:24:57.647Z,18.30
2024-04-22T02:27:24.214Z,17.50
2024-04-22T02:29:50.770Z,17.15
2024-04-22T02:32:21.407Z,17.90
2024-04-22T02:34:48.051Z,16.70
2024-04-22T02:37:14.630Z,16.77
2024-04-22T02:39:41.219Z,17.05
2024-04-22T02:42:07.901Z,16.60
2024-04-22T02:44:34.730Z,16.52
2024-04-22T02:47:01.431Z,16.92
2024-04-22T02:49:30.730Z,17.92
2024-04-22T02:51:57.363Z,18.70
2024-04-22T02:54:29.287Z,16.73
2024-04-22T02:56:56.064Z,16.58
2024-04-22T02:59:22.707Z,16.73
2024-04-22T03:01:52.985Z,17.00
2024-04-22T03:06:48.210Z,15.85
2024-04-22T03:09:14.930Z,16.00
2024-04-22T03:11:41.576Z,16.38
2024-04-22T03:14:08.190Z,15.80
2024-04-22T03:16:34.828Z,16.13
2024-04-22T03:19:01.418Z,15.27
2024-04-22T03:21:28.234Z,16.17
2024-04-22T03:23:54.846Z,14.73
2024-04-22T03:26:21.466Z,15.48
2024-04-22T03:28:48.092Z,15.85
2024-04-22T03:31:15.196Z,15.60
2024-04-22T03:33:42.008Z,15.77
2024-04-22T03:36:09.002Z,15.52
2024-04-22T03:38:35.536Z,14.32
2024-04-22T03:41:02.274Z,15.68
2024-04-22T03:43:28.891Z,15.30
2024-04-22T03:46:14.203Z,15.77
2024-04-22T03:48:59.524Z,11.95
2024-04-22T03:51:26.344Z,12.93
2024-04-22T03:53:52.935Z,11.68
2024-04-22T03:56:19.510Z,11.63
2024-04-22T03:58:46.103Z,11.18
2024-04-22T04:01:12.847Z,11.38
2024-04-22T04:03:39.459Z,11.40
2024-04-22T04:06:06.134Z,11.68
2024-04-22T04:08:35.848Z,11.73
2024-04-22T04:11:11.061Z,11.95
2024-04-22T04:13:37.756Z,11.02
2024-04-22T04:16:04.570Z,10.85
2024-04-22T04:18:31.188Z,11.27
2024-04-22T04:20:57.740Z,11.38
2024-04-22T04:23:24.279Z,11.48
2024-04-22T04:25:50.908Z,11.77
2024-04-22T04:28:17.540Z,11.55
2024-04-22T04:30:44.115Z,11.73
2024-04-22T04:33:10.716Z,11.02
2024-04-22T04:35:37.341Z,12.43
2024-04-22T04:38:04.037Z,11.52
2024-04-22T04:40:30.635Z,11.88
2024-04-22T04:42:57.239Z,11.30
2024-04-22T04:45:24.328Z,12.07
2024-04-22T04:47:54.769Z,11.75
2024-04-22T04:50:21.398Z,12.20
2024-04-22T04:52:48.009Z,11.45
2024-04-22T04:55:14.670Z,12.60
2024-04-22T04:57:41.264Z,12.38
2024-04-22T05:00:08.687Z,12.85
2024-04-22T05:02:35.342Z,12.15
2024-04-22T05:05:01.963Z,12.70
2024-04-22T05:07:29.010Z,11.60
2024-04-22T05:09:55.574Z,12.18
2024-04-22T05:12:22.115Z,13.48
2024-04-22T05:14:48.707Z,12.70
2024-04-22T05:17:15.333Z,13.15
2024-04-22T05:19:42.279Z,14.10
2024-04-22T05:22:08.889Z,13.00
2024-04-22T05:24:35.535Z,13.55
2024-04-22T05:27:02.159Z,13.38
2024-04-22T05:29:29.092Z,12.32
2024-04-22T05:31:55.650Z,12.23
2024-04-22T05:34:41.117Z,13.40
2024-04-22T05:37:08.658Z,12.93
2024-04-22T05:39:35.255Z,12.60
2024-04-22T05:42:01.861Z,13.07
2024-04-22T05:44:28.524Z,13.38
2024-04-22T05:46:55.086Z,14.38
2024-04-22T05:49:22.978Z,13.45
2024-04-22T05:51:51.017Z,13.27
2024-04-22T05:54:17.612Z,13.43
2024-04-22T05:56:44.756Z,13.43
2024-04-22T05:59:12.954Z,13.35
2024-04-22T06:01:42.115Z,12.10
2024-04-22T06:04:09.271Z,14.55
2024-04-22T06:06:38.889Z,14.80
2024-04-22T06:09:06.783Z,14.98
2024-04-22T06:11:34.035Z,14.40
2024-04-22T06:14:00.810Z,13.98
2024-04-22T06:16:28.838Z,14.32
2024-04-22T06:18:55.988Z,14.35
2024-04-22T06:21:25.401Z,14.98
2024-04-22T06:23:52.460Z,15.03
2024-04-22T06:26:19.401Z,16.02
2024-04-22T06:28:46.696Z,15.32
2024-04-22T06:31:13.556Z,14.60
2024-04-22T06:33:48.436Z,14.52
2024-04-22T06:36:15.510Z,14.38
2024-04-22T06:38:43.578Z,14.63
2024-04-22T06:41:10.299Z,14.48
2024-04-22T06:43:39.770Z,13.95
2024-04-22T06:46:06.832Z,13.88
2024-04-22T06:48:33.436Z,13.77
2024-04-22T06:51:01.812Z,14.32
2024-04-22T06:53:29.064Z,14.52
2024-04-22T06:55:55.773Z,14.30
2024-04-22T06:58:22.501Z,14.80
2024-04-22T07:00:49.203Z,15.63
2024-04-22T07:03:16.045Z,15.20
2024-04-22T07:05:42.681Z,15.55
2024-04-22T07:08:09.272Z,16.05
2024-04-22T07:10:35.930Z,15.45
2024-04-22T07:13:02.616Z,15.60
2024-04-22T07:15:29.462Z,15.00
2024-04-22T07:17:56.093Z,15.48
2024-04-22T07:20:22.888Z,16.10
2024-04-22T07:22:49.483Z,15.55
2024-04-22T07:25:16.145Z,15.00
2024-04-22T07:27:43.898Z,15.13
2024-04-22T07:30:11.872Z,15.50
2024-04-22T07:32:38.807Z,15.07
2024-04-22T07:35:06.002Z,14.57
2024-04-22T07:37:37.947Z,14.50
2024-04-22T07:40:07.508Z,15.80
2024-04-22T07:42:34.100Z,15.02
2024-04-22T07:45:00.649Z,14.80
2024-04-22T07:47:27.248Z,14.80
2024-04-22T07:49:53.850Z,15.25
2024-04-22T07:52:20.662Z,14.73
2024-04-22T07:54:47.821Z,15.35
2024-04-22T07:57:14.668Z,15.60
2024-04-22T07:59:41.493Z,15.93
2024-04-22T08:02:08.582Z,16.27
2024-04-22T08:04:35.569Z,15.23
2024-04-22T08:07:04.675Z,16.15
2024-04-22T08:09:31.886Z,15.57
2024-04-22T08:11:58.949Z,15.77
2024-04-22T08:14:25.570Z,16.35
2024-04-22T08:16:52.504Z,18.50
2024-04-22T08:19:19.195Z,16.85
2024-04-22T08:21:46.370Z,18.83
2024-04-22T08:24:12.993Z,17.98
2024-04-22T08:26:39.550Z,17.40
2024-04-22T08:29:06.149Z,16.52
2024-04-22T08:31:33.617Z,16.80
2024-04-22T08:34:00.199Z,16.88
2024-04-22T08:36:27.015Z,17.15
2024-04-22T08:38:53.582Z,16.40
2024-04-22T08:41:21.808Z,16.83
2024-04-22T08:43:49.140Z,16.85
2024-04-22T08:46:15.900Z,16.23
2024-04-22T08:48:42.631Z,16.80
2024-04-22T08:51:12.640Z,17.02
2024-04-22T08:53:39.238Z,16.90
2024-04-22T08:56:07.403Z,16.63
2024-04-22T08:58:34.114Z,15.88
2024-04-22T09:01:05.620Z,16.50
2024-04-22T09:03:32.207Z,16.30
2024-04-22T09:05:59.019Z,16.10
2024-04-22T09:08:25.926Z,15.38
2024-04-22T09:11:27.239Z,16.60
2024-04-22T09:13:45.886Z,14.93
2024-04-22T09:16:17.383Z,16.50
2024-04-22T09:18:44.358Z,15.30
2024-04-22T09:21:12.328Z,16.00
2024-04-22T09:23:39.136Z,16.20
2024-04-22T09:26:06.978Z,16.15
2024-04-22T09:28:38.188Z,15.27
2024-04-22T09:31:06.589Z,16.00
2024-04-22T09:33:37.906Z,15.20
2024-04-22T09:36:05.842Z,14.95
2024-04-22T09:38:45.483Z,14.77
2024-04-22T09:41:14.721Z,16.00
2024-04-22T09:43:48.265Z,15.75
2024-04-22T09:46:18.940Z,14.63
2024-04-22T09:48:47.347Z,13.07
2024-04-22T09:51:15.280Z,16.73
2024-04-22T09:53:42.775Z,15.13
2024-04-22T09:56:13.280Z,15.43
2024-04-22T09:58:41.588Z,13.80
2024-04-22T10:01:08.573Z,15.25
2024-04-22T10:03:35.501Z,14.30
2024-04-22T10:06:05.091Z,14.80
2024-04-22T10:08:33.328Z,18.10
2024-04-22T10:11:10.756Z,16.55
2024-04-22T10:13:38.194Z,16.90
2024-04-22T10:16:06.121Z,16.92
2024-04-22T10:18:33.481Z,14.50
2024-04-22T10:21:02.946Z,14.70
2024-04-22T10:23:30.141Z,19.00
2024-04-22T10:25:56.792Z,16.08
2024-04-22T10:28:23.487Z,16.05
2024-04-22T10:30:50.118Z,17.17
2024-04-22T10:33:16.809Z,15.65
2024-04-22T10:35:43.469Z,15.10
2024-04-22T10:38:10.009Z,14.95
2024-04-22T10:40:36.735Z,16.23
2024-04-22T10:43:03.428Z,15.32
2024-04-22T10:45:30.119Z,16.45
2024-04-22T10:48:07.784Z,16.10
2024-04-22T10:50:43.855Z,14.75
2024-04-22T10:53:10.621Z,15.93
2024-04-22T10:55:37.552Z,16.33
2024-04-22T10:58:05.907Z,16.00
2024-04-22T11:00:33.402Z,14.45
2024-04-22T11:03:00.968Z,14.60
2024-04-22T11:05:28.598Z,14.18
2024-04-22T11:07:55.547Z,14.68
2024-04-22T11:10:31.031Z,15.50
2024-04-22T11:13:01.773Z,15.40
2024-04-22T11:15:28.388Z,15.38
2024-04-22T11:18:05.412Z,15.82
2024-04-22T11:20:32.664Z,16.75
2024-04-22T11:22:59.792Z,16.27
2024-04-22T11:25:26.511Z,16.40
2024-04-22T11:27:53.238Z,17.15
2024-04-22T11:30:20.123Z,16.80
2024-04-22T11:32:46.853Z,16.58
2024-04-22T11:35:13.789Z,17.20
2024-04-22T11:37:41.287Z,16.85
2024-04-22T11:40:10.303Z,18.05
2024-04-22T11:42:36.929Z,19.10
2024-04-22T11:45:06.483Z,18.85
2024-04-22T11:47:33.641Z,20.02
2024-04-22T11:52:26.867Z,18.98
2024-04-22T11:54:53.524Z,19.27
2024-04-22T11:57:20.161Z,19.70
2024-04-22T11:59:46.744Z,19.77
2024-04-22T12:02:17.930Z,19.25
2024-04-22T12:04:45.815Z,17.67
2024-04-22T12:07:13.833Z,17.38
2024-04-22T12:09:40.568Z,18.08
2024-04-22T12:12:07.774Z,18.02
2024-04-22T12:14:34.443Z,18.50
2024-04-22T12:17:01.189Z,16.60
2024-04-22T12:19:28.399Z,17.83
2024-04-22T12:21:55.160Z,17.90
2024-04-22T12:24:21.758Z,16.15
2024-04-22T12:26:48.343Z,16.77
2024-04-22T12:29:14.910Z,16.65
2024-04-22T12:31:41.707Z,15.90
2024-04-22T12:34:12.859Z,15.52
2024-04-22T12:36:41.095Z,17.20
2024-04-22T12:39:07.754Z,17.02
2024-04-22T12:41:34.395Z,18.50
2024-04-22T12:44:03.706Z,17.13
2024-04-22T12:49:42.453Z,17.33
2024-04-22T12:52:10.076Z,16.42
2024-04-22T12:54:36.755Z,16.30
2024-04-22T12:57:03.479Z,17.30
2024-04-22T12:59:30.106Z,16.55
2024-04-22T13:01:57.294Z,18.15
2024-04-22T13:04:24.501Z,17.90
2024-04-22T13:06:51.280Z,17.10
2024-04-22T13:09:18.295Z,18.30
2024-04-22T13:11:45.609Z,18.25
2024-04-22T13:14:12.549Z,16.88
2024-04-22T13:16:39.245Z,16.23
2024-04-22T13:19:07.797Z,16.02
2024-04-22T13:21:35.086Z,15.98
2024-04-22T13:24:01.862Z,17.10
2024-04-22T13:26:28.509Z,16.83
2024-04-22T13:28:55.157Z,17.40
2024-04-22T13:31:23.033Z,17.23
2024-04-22T13:33:54.383Z,18.27
2024-04-22T13:36:21.127Z,16.58
2024-04-22T13:38:48.181Z,16.33
2024-04-22T13:41:14.796Z,18.38
2024-04-22T13:43:41.434Z,17.08
2024-04-22T13:46:08.046Z,15.90
2024-04-22T13:48:34.748Z,15.48
2024-04-22T13:51:02.255Z,17.52
2024-04-22T13:53:32.082Z,17.13
2024-04-22T13:58:27.122Z,16.00
2024-04-22T14:00:54.130Z,16.83
2024-04-22T14:03:20.969Z,15.98
2024-04-22T14:05:47.570Z,17.35
2024-04-22T14:08:14.183Z,16.23
2024-04-22T14:10:40.874Z,16.55
2024-04-22T14:13:07.724Z,14.50
2024-04-22T14:15:44.826Z,16.30
2024-04-22T14:18:15.206Z,17.23
2024-04-22T14:20:42.573Z,17.13
2024-04-22T14:23:09.145Z,15.50
2024-04-22T14:25:35.974Z,15.88
2024-04-22T14:28:02.664Z,14.70
2024-04-22T14:30:29.273Z,15.40
2024-04-22T14:32:56.094Z,14.30
2024-04-22T14:35:22.794Z,16.65
2024-04-22T14:37:49.492Z,16.85
2024-04-22T14:40:16.290Z,17.48
2024-04-22T14:42:42.845Z,18.27
2024-04-22T14:45:09.589Z,16.77
2024-04-22T14:47:36.285Z,16.13
2024-04-22T14:50:03.319Z,16.77
2024-04-22T14:52:29.897Z,15.40
2024-04-22T14:54:56.476Z,15.32
2024-04-22T14:57:23.144Z,15.65
2024-04-22T14:59:49.676Z,14.93
2024-04-22T15:02:17.714Z,15.68
2024-04-22T15:04:44.468Z,14.70
2024-04-22T15:07:11.176Z,15.30
2024-04-22T15:09:47.091Z,15.68
2024-04-22T15:12:14.431Z,16.38
2024-04-22T15:14:41.053Z,15.40
2024-04-22T15:17:07.869Z,16.73
2024-04-22T15:19:34.768Z,15.77
2024-04-22T15:22:01.466Z,15.85
2024-04-22T15:24:28.075Z,15.50
2024-04-22T15:26:54.808Z,15.45
2024-04-22T15:29:21.545Z,16.23
2024-04-22T15:31:48.223Z,16.98
2024-04-22T15:34:14.923Z,15.73
2024-04-22T15:36:41.527Z,15.52
2024-04-22T15:39:08.680Z,15.85
2024-04-22T15:41:36.215Z,14.10
2024-04-22T15:44:04.488Z,16.17
2024-04-22T15:46:31.657Z,15.70
2024-04-22T15:48:58.335Z,13.30
2024-04-22T15:51:25.256Z,14.52
2024-04-22T15:53:52.059Z,13.52
2024-04-22T15:56:18.928Z,13.90
2024-04-22T15:58:45.581Z,14.15
2024-04-22T16:01:12.219Z,15.25
2024-04-22T16:03:39.229Z,14.30
2024-04-22T16:06:06.502Z,15.40
2024-04-22T16:08:33.261Z,13.88
2024-04-22T16:10:59.988Z,15.68
2024-04-22T16:13:26.652Z,15.13
2024-04-22T16:15:53.288Z,14.43
2024-04-22T16:18:20.160Z,14.70
2024-04-22T16:20:56.379Z,13.93
2024-04-22T16:23:31.740Z,13.63
2024-04-22T16:26:00.190Z,13.77
2024-04-22T16:28:26.894Z,13.60
2024-04-22T16:30:53.656Z,14.52
2024-04-22T16:33:20.243Z,13.18
2024-04-22T16:35:46.820Z,13.70
2024-04-22T16:38:13.365Z,14.07
2024-04-22T16:40:40.248Z,14.43
2024-04-22T16:43:08.766Z,14.02
2024-04-22T16:45:35.355Z,13.10
2024-04-22T16:48:02.090Z,13.30
2024-04-22T16:50:28.849Z,13.90
2024-04-22T16:52:55.560Z,13.88
2024-04-22T16:55:22.302Z,13.95
2024-04-22T16:57:48.916Z,14.30
2024-04-22T17:00:15.789Z,14.60
2024-04-22T17:02:42.456Z,13.93
2024-04-22T17:05:09.302Z,14.23
2024-04-22T17:07:36.816Z,14.02
2024-04-22T17:10:07.582Z,14.70
2024-04-22T17:12:34.379Z,15.85
2024-04-22T17:15:01.317Z,15.10
2024-04-22T17:17:28.213Z,15.00
2024-04-22T17:19:55.047Z,15.70
2024-04-22T17:22:21.765Z,15.10
2024-04-22T17:24:51.859Z,15.32
2024-04-22T17:27:21.535Z,14.98
2024-04-22T17:29:48.357Z,15.63
2024-04-22T17:32:15.686Z,15.68
2024-04-22T17:34:42.328Z,14.23
2024-04-22T17:37:10.329Z,14.75
2024-04-22T17:39:38.089Z,15.10
2024-04-22T17:42:05.566Z,14.60
2024-04-22T17:44:32.168Z,15.07
2024-04-22T17:46:59.802Z,15.00
2024-04-22T17:49:26.589Z,16.45
2024-04-22T17:51:53.296Z,15.57
2024-04-22T17:54:19.874Z,14.70
2024-04-22T17:56:52.887Z,14.35
2024-04-22T17:59:23.417Z,14.43
2024-04-22T18:01:50.271Z,14.02
2024-04-22T18:04:16.975Z,14.38
2024-04-22T18:06:43.705Z,15.07
2024-04-22T18:09:10.748Z,14.95
2024-04-22T18:11:37.759Z,15.30
2024-04-22T18:14:04.645Z,15.82
2024-04-22T18:16:31.245Z,15.18
2024-04-22T18:18:59.580Z,16.70
2024-04-22T18:21:26.387Z,17.20
2024-04-22T18:23:53.827Z,16.60
2024-04-22T18:26:20.757Z,16.77
2024-04-22T18:28:47.620Z,16.92
2024-04-22T18:31:15.987Z,15.90
2024-04-22T18:33:44.386Z,15.73
2024-04-22T18:36:11.042Z,12.80
2024-04-22T18:38:37.906Z,13.02
2024-04-22T18:41:05.628Z,12.80
2024-04-22T18:43:34.468Z,12.95
2024-04-22T18:46:01.024Z,13.10
2024-04-22T18:48:29.607Z,14.43
2024-04-22T18:50:58.816Z,13.02
2024-04-22T18:53:25.842Z,13.70
2024-04-22T18:55:52.742Z,18.27
2024-04-22T18:58:19.375Z,17.98
2024-04-22T19:00:50.075Z,19.25
2024-04-22T19:03:16.820Z,18.10
2024-04-22T19:05:43.510Z,17.63
2024-04-22T19:08:10.154Z,16.90
2024-04-22T19:10:39.277Z,17.75
2024-04-22T19:13:06.706Z,17.88
2024-04-22T19:15:33.295Z,17.63
2024-04-22T19:18:00.052Z,17.50
2024-04-22T19:20:26.704Z,17.83
2024-04-22T19:22:53.319Z,17.50
2024-04-22T19:25:20.161Z,16.98
2024-04-22T19:27:47.118Z,16.92
2024-04-22T19:30:13.748Z,16.63
2024-04-22T19:32:40.516Z,17.42
2024-04-22T19:35:07.393Z,17.48
2024-04-22T19:37:34.028Z,18.08
2024-04-22T19:40:00.619Z,17.17
2024-04-22T19:42:27.172Z,17.77
2024-04-22T19:44:55.917Z,16.75
2024-04-22T19:47:24.076Z,17.65
2024-04-22T19:49:50.751Z,17.08
2024-04-22T19:52:17.462Z,17.40
2024-04-22T19:54:44.048Z,19.02
2024-04-22T19:57:10.622Z,18.70
2024-04-22T19:59:38.704Z,18.02
2024-04-22T20:02:05.430Z,17.70
2024-04-22T20:04:32.334Z,18.27
2024-04-22T20:06:59.062Z,18.80
2024-04-22T20:09:25.732Z,18.20
2024-04-22T20:11:52.329Z,19.58
2024-04-22T20:14:19.593Z,18.05
2024-04-22T20:16:59.669Z,19.25
2024-04-22T20:19:29.087Z,18.48
2024-04-22T20:21:55.768Z,18.77
2024-04-22T20:24:23.002Z,18.30
2024-04-22T20:26:49.573Z,18.77
2024-04-22T20:29:18.471Z,18.48
2024-04-22T20:31:45.375Z,20.02
2024-04-22T20:34:12.186Z,18.77
2024-04-22T20:36:39.388Z,18.20
2024-04-22T20:39:05.998Z,19.27
2024-04-22T20:41:32.717Z,19.25
2024-04-22T20:44:04.696Z,19.55
2024-04-22T20:46:31.374Z,18.58
2024-04-22T20:48:57.987Z,19.15
2024-04-22T20:51:24.544Z,19.17
2024-04-22T20:53:51.116Z,20.17
2024-04-22T20:56:18.644Z,18.90
2024-04-22T20:58:45.318Z,19.17
2024-04-22T21:01:11.980Z,19.92
2024-04-22T21:03:39.429Z,19.83
2024-04-22T21:06:06.214Z,19.55
2024-04-22T21:08:33.516Z,19.42
2024-04-22T21:11:02.566Z,18.67
2024-04-22T21:13:32.772Z,19.13
2024-04-22T21:16:02.332Z,19.10
2024-04-22T21:18:29.177Z,20.52
2024-04-22T21:20:56.270Z,21.88
2024-04-22T21:23:22.881Z,20.35
2024-04-22T21:25:49.599Z,20.33
2024-04-22T21:28:16.244Z,20.45
2024-04-22T21:30:42.838Z,21.98
2024-04-22T21:35:38.897Z,20.63
2024-04-22T21:38:05.558Z,21.42
2024-04-22T21:40:32.275Z,21.58
2024-04-22T21:42:58.961Z,20.60
2024-04-22T21:45:25.500Z,22.23
2024-04-22T21:47:52.403Z,22.77
2024-04-22T21:50:18.983Z,23.25
2024-04-22T21:52:45.557Z,21.67
2024-04-22T21:55:13.052Z,22.75
2024-04-22T21:58:17.476Z,23.60
2024-04-22T22:01:22.133Z,25.58
2024-04-22T22:04:26.614Z,25.20
2024-04-22T22:07:15.841Z,24.17
2024-04-22T22:09:42.839Z,25.25
2024-04-22T22:12:09.466Z,22.98
2024-04-22T22:14:36.306Z,22.08
2024-04-22T22:17:03.468Z,21.92
2024-04-22T22:19:31.567Z,27.65
2024-04-22T22:21:58.181Z,27.60
2024-04-22T22:24:24.758Z,30.92
2024-04-22T22:26:51.316Z,28.08
2024-04-22T22:29:17.890Z,28.52
2024-04-22T22:31:44.529Z,28.65
2024-04-22T22:34:11.110Z,28.75
2024-04-22T22:36:37.712Z,28.02
2024-04-22T22:39:04.278Z,27.70
2024-04-22T22:41:30.826Z,27.75
2024-04-22T22:43:57.411Z,27.10
2024-04-22T22:46:24.135Z,26.75
2024-04-22T22:48:50.802Z,27.05
2024-04-22T22:51:17.337Z,26.50
2024-04-22T22:53:44.006Z,27.25
2024-04-22T22:56:10.555Z,27.55
2024-04-22T22:58:37.546Z,27.65
2024-04-22T23:01:04.288Z,27.08
2024-04-22T23:03:30.867Z,25.90
2024-04-22T23:05:57.429Z,25.67
2024-04-22T23:08:23.957Z,26.20
2024-04-22T23:10:50.555Z,25.52
2024-04-22T23:13:17.438Z,26.00
2024-04-22T23:15:44.048Z,25.05
2024-04-22T23:18:10.615Z,25.38
2024-04-22T23:20:37.204Z,26.70
2024-04-22T23:23:04.005Z,25.75
2024-04-22T23:25:30.603Z,24.52
2024-04-22T23:27:57.198Z,24.85
2024-04-22T23:30:23.749Z,26.77
2024-04-22T23:32:50.424Z,24.85
2024-04-22T23:35:17.016Z,24.35
2024-04-22T23:37:43.610Z,24.48
2024-04-22T23:40:10.458Z,25.35
2024-04-22T23:42:37.047Z,24.70
2024-04-22T23:45:03.878Z,26.60
2024-04-22T23:47:30.435Z,25.70
2024-04-22T23:49:57.497Z,27.45
2024-04-22T23:52:24.129Z,27.35
2024-04-22T23:54:50.766Z,27.48
2024-04-22T23:57:17.300Z,27.13
2024-04-22T23:59:44.047Z,27.88
